Flight Track Log - Related Links

Times and Time Zones

All times are in EDT time to prevent confusion due to time zone crossing. See the JBU572 flight status page for this flight to view local times or setup timezone preferences in your user account.

Time Position Orientation Groundspeed Altitude Reporting Facility
EDT Latitude Longitude Course Direction KTS MPH feet Rate Location/Type
Tue 08:08:00 AM 26.9219 -79.6916 55° Northeast  Level FlightAware Approximate
Tue 08:08:19 AM 26.7717 -80.1747 53° Northeast 260 299 8,100  Level Miami Center
Tue 08:09:00 AM 26.9785 -79.6011 55° Northeast  Level FlightAware Approximate
Tue 08:09:19 AM 26.8050 -80.0825 68° East 272 313 11,200  Level Miami Center
Tue 08:10:00 AM 27.0364 -79.5115 56° Northeast  Level FlightAware Approximate
Tue 08:10:20 AM 26.8403 -80.0042 63° Northeast 298 343 13,000  Level Miami Center
Tue 08:11:00 AM 27.0917 -79.4199 55° Northeast  Level FlightAware Approximate
Tue 08:11:19 AM 26.8967 -79.8986 59° Northeast 340 391 14,900  Level Miami Center
Tue 08:12:00 AM 27.1484 -79.3292 55° Northeast  Level FlightAware Approximate
Tue 08:12:19 AM 26.9531 -79.8000 57° Northeast 366 421 16,900  Level Miami Center
Tue 08:13:00 AM 27.2133 -79.2467 53° Northeast  Level FlightAware Approximate
Tue 08:13:19 AM 27.0114 -79.6989 57° Northeast 378 435 18,500  Level Miami Center
Tue 08:14:19 AM 27.0633 -79.6022 59° Northeast 384 442 20,100 1,550 Climbing Miami Center
Tue 08:15:19 AM 27.1261 -79.4939 57° Northeast 402 463 21,600 1,450 Climbing Miami Center
Tue 08:16:19 AM 27.1931 -79.3694 59° Northeast 414 476 23,000 700 Climbing Miami Center
Tue 08:17:19 AM 27.2575 -79.2564 57° Northeast 424 488 23,000  Level Miami Center
Tue 08:18:19 AM 27.3242 -79.1431 56° Northeast 424 488 23,000 200 Level Miami Center
Tue 08:19:19 AM 27.3800 -79.0389 59° Northeast 425 489 23,400 950 Climbing Miami Center
Tue 08:20:19 AM 27.4631 -78.9233 51° Northeast 425 489 24,900 1,350 Climbing Miami Center
Tue 08:21:19 AM 27.5561 -78.8383 39° Northeast 425 489 26,100 1,250 Climbing Miami Center
Tue 08:22:19 AM 27.6636 -78.7747 28° Northeast 435 501 27,400 1,200 Climbing Miami Center
Tue 08:23:19 AM 27.7706 -78.7436 14° North 429 494 28,500 1,100 Climbing Miami Center
Tue 08:24:19 AM 27.9064 -78.7247 North 440 506 29,600 1,300 Climbing Miami Center
Tue 08:25:19 AM 28.0278 -78.7078 North 434 499 31,100 1,300 Climbing Miami Center
Tue 08:26:19 AM 28.1469 -78.6908 North 434 499 32,200 1,250 Climbing Miami Center
Tue 08:27:19 AM 28.2642 -78.6717 North 439 505 33,600 1,050 Climbing Miami Center
Tue 08:28:19 AM 28.3875 -78.6525 North 434 499 34,300 700 Climbing Miami Center
Tue 08:29:19 AM 28.5047 -78.6378 North 429 494 35,000 350 Climbing Miami Center
Tue 08:30:19 AM 28.6258 -78.6183 North 429 494 35,000  Level Miami Center
Tue 08:31:19 AM 28.7450 -78.5989 North 429 494 35,000 -50 Level Miami Center
Tue 08:32:19 AM 28.8664 -78.5819 North 429 494 34,900  Descending Miami Center
Tue 08:33:19 AM 28.9833 -78.5622 North 424 488 35,000 50 Climbing Miami Center
Tue 08:34:19 AM 29.1047 -78.5475 North 429 494 35,000  Level Miami Center
Tue 08:35:19 AM 29.2236 -78.5303 North 429 494 35,000  Level Miami Center
Tue 08:36:19 AM 29.3367 -78.5106 North 429 494 35,000  Level Miami Center
Tue 08:37:19 AM 29.4722 -78.5056 North 459 528 35,000  Level Miami Center
Tue 08:38:19 AM 29.5728 -78.4761 14° North 419 482 35,000 -50 Level Miami Center
Tue 08:39:19 AM 29.6897 -78.4586 North 424 488 34,900  Descending Miami Center
Tue 08:40:19 AM 29.8111 -78.4431 North 424 488 35,000 50 Climbing Jacksonville Center
Tue 08:41:19 AM 29.9186 -78.4167 12° North 424 488 35,000  Level Jacksonville Center
Tue 08:42:19 AM 30.0436 -78.4058 North 425 489 35,000  Level Jacksonville Center
Tue 08:43:19 AM 30.1556 -78.3864 North 425 489 35,000  Level Jacksonville Center
Tue 08:44:19 AM 30.2697 -78.3714 North 413 475 35,000  Level Jacksonville Center
Tue 08:45:19 AM 30.3964 -78.3533 North 434 499 35,000  Level Jacksonville Center
Tue 08:46:19 AM 30.5106 -78.3311 10° North 418 481 35,000  Level Jacksonville Center
Tue 08:47:19 AM 30.6244 -78.3039 12° North 416 479 35,000  Level Jacksonville Center
Tue 08:48:19 AM 30.7425 -78.2811 North 416 479 35,000  Level Jacksonville Center
Tue 08:49:19 AM 30.8625 -78.2536 11° North 426 490 35,000  Level Jacksonville Center
Tue 08:50:19 AM 30.9786 -78.2308 10° North 421 484 35,000  Level Jacksonville Center
Tue 08:51:19 AM 31.0800 -78.2042 13° North 416 479 35,000  Level Jacksonville Center
Tue 08:52:19 AM 31.1958 -78.1789 11° North 416 479 35,000  Level Jacksonville Center
Tue 08:53:19 AM 31.3119 -78.1536 11° North 421 484 35,000  Level Jacksonville Center
Tue 08:54:19 AM 31.4278 -78.1308 10° North 421 484 35,000  Level Jacksonville Center
Tue 08:55:19 AM 31.5417 -78.1031 12° North 426 490 35,000  Level Jacksonville Center
Tue 08:56:19 AM 31.6575 -78.0775 11° North 426 490 35,000  Level Jacksonville Center
Tue 08:57:19 AM 31.7733 -78.0469 13° North 426 490 35,000  Level Jacksonville Center
Tue 08:58:19 AM 31.8858 -77.9897 23° Northeast 431 496 35,000  Level Jacksonville Center
Tue 08:59:19 AM 32.0014 -77.9567 14° North 431 496 35,000 500 Level Jacksonville Center
Tue 09:00:19 AM 32.1147 -77.9136 18° North 431 496 36,000 800 Climbing Jacksonville Center
Tue 09:01:19 AM 32.2253 -77.8636 21° North 426 490 36,600 500 Climbing Jacksonville Center
Tue 09:02:19 AM 32.3386 -77.8253 16° North 420 483 37,000 200 Climbing Jacksonville Center
Tue 09:03:19 AM 32.4558 -77.7844 16° North 420 483 37,000  Level Jacksonville Center
Tue 09:04:19 AM 32.5708 -77.7358 20° North 426 490 37,000  Level Jacksonville Center
Tue 09:05:19 AM 32.6858 -77.6925 18° North 426 490 37,000  Level Jacksonville Center
Tue 09:06:19 AM 32.8008 -77.6461 19° North 431 496 37,000  Level Jacksonville Center
Tue 09:07:19 AM 32.9139 -77.6025 18° North 431 496 37,000 -50 Level Jacksonville Center
Tue 09:08:19 AM 33.0267 -77.5586 18° North 431 496 36,900 -50 Descending Jacksonville Center
Tue 09:09:19 AM 33.1394 -77.5122 19° North 431 496 36,900 33 Level Jacksonville Center
Tue 09:11:22 AM 33.3861 -77.4172 18° North 444 511 37,000 33 Climbing Washington Center
Tue 09:12:22 AM 33.4972 -77.3747 18° North 432 497 37,000 -50 Level Washington Center
Tue 09:13:22 AM 33.6086 -77.3297 19° North 426 490 36,900 -50 Descending Washington Center
Tue 09:14:22 AM 33.7217 -77.2847 18° North 426 490 36,900  Level Washington Center
Tue 09:15:22 AM 33.8331 -77.2419 18° North 426 490 36,900 50 Level Washington Center
Tue 09:16:22 AM 33.9483 -77.1967 18° North 426 490 37,000 50 Climbing Washington Center
Tue 09:17:22 AM 34.0636 -77.1489 19° North 426 490 37,000  Level Washington Center
Tue 09:18:22 AM 34.1789 -77.1033 18° North 426 490 37,000  Level Washington Center
Tue 09:19:22 AM 34.2922 -77.0600 18° North 426 490 37,000  Level Washington Center
Tue 09:20:22 AM 34.4053 -77.0117 19° North 426 490 37,000  Level Washington Center
Tue 09:21:22 AM 34.5228 -76.9658 18° North 426 490 37,000  Level Washington Center
Tue 09:22:22 AM 34.6361 -76.9197 19° North 431 496 37,000 -50 Level Washington Center
Tue 09:23:22 AM 34.7492 -76.8711 19° North 426 490 36,900  Descending Washington Center
Tue 09:24:22 AM 34.8644 -76.8247 18° North 426 490 37,000 50 Climbing Washington Center
Tue 09:25:22 AM 34.9797 -76.7808 17° North 426 490 37,000  Level Washington Center
Tue 09:26:22 AM 35.0906 -76.7344 19° North 426 490 37,000  Level Washington Center
Tue 09:27:22 AM 35.1975 -76.6900 19° North 426 490 37,000  Level Washington Center
Tue 09:28:22 AM 35.3128 -76.6408 19° North 431 496 37,000  Level Washington Center
Tue 09:29:22 AM 35.4278 -76.5939 18° North 431 496 37,000  Level Washington Center
Tue 09:30:22 AM 35.5450 -76.5494 17° North 431 496 37,000  Level Washington Center
Tue 09:31:22 AM 35.6603 -76.4944 21° North 431 496 37,000  Level Washington Center
Tue 09:32:22 AM 35.7753 -76.4497 18° North 431 496 37,000  Level Washington Center
Tue 09:33:22 AM 35.8925 -76.3997 19° North 431 496 37,000  Level Washington Center
Tue 09:34:22 AM 36.0075 -76.3519 19° North 431 496 37,000  Level Washington Center
Tue 09:35:22 AM 36.1225 -76.3044 18° North 431 496 37,000  Level Washington Center
Tue 09:36:22 AM 36.2397 -76.2539 19° North 431 496 37,000  Level Washington Center
Tue 09:37:22 AM 36.3547 -76.2058 19° North 431 496 37,000  Level Washington Center
Tue 09:38:22 AM 36.4719 -76.1578 18° North 431 496 37,000  Level Washington Center
Tue 09:39:22 AM 36.5889 -76.1067 19° North 431 496 37,000  Level Washington Center
Tue 09:40:22 AM 36.7058 -76.0556 19° North 431 496 37,000  Level Washington Center
Tue 09:41:22 AM 36.8333 -75.9994 19° North 441 507 37,000  Level Washington Center
Tue 09:42:22 AM 36.9503 -75.9481 19° North 441 507 37,000  Level Washington Center
Tue 09:43:22 AM 37.0714 -75.8992 18° North 448 516 37,000  Level Washington Center
Tue 09:44:22 AM 37.1906 -75.8500 18° North 448 516 37,000  Level Washington Center
Tue 09:45:22 AM 37.3075 -75.7981 19° North 442 509 37,000  Level Washington Center
Tue 09:46:22 AM 37.4222 -75.7489 19° North 442 509 37,000 -50 Level Washington Center
Tue 09:47:22 AM 37.5369 -75.6861 23° Northeast 442 509 36,900  Descending Washington Center
Tue 09:48:22 AM 37.6517 -75.6181 25° Northeast 447 514 37,000 50 Climbing Washington Center
Tue 09:49:22 AM 37.7686 -75.5575 22° Northeast 447 514 37,000  Level Washington Center
Tue 09:50:22 AM 37.8811 -75.4892 26° Northeast 447 514 37,000  Level Washington Center
Tue 09:51:22 AM 37.9978 -75.4283 22° Northeast 447 514 37,000  Level Washington Center
Tue 09:52:22 AM 38.1103 -75.3622 25° Northeast 447 514 37,000 -50 Level Washington Center
Tue 09:53:22 AM 38.2250 -75.3036 22° Northeast 441 507 36,900  Descending Washington Center
Tue 09:54:22 AM 38.3289 -75.2397 26° Northeast 441 507 37,000 50 Climbing Washington Center
Tue 09:55:22 AM 38.4414 -75.1728 25° Northeast 441 507 37,000  Level Washington Center
Tue 09:56:22 AM 38.5536 -75.1164 21° North 441 507 37,000  Level Washington Center
Tue 09:57:22 AM 38.6661 -75.0467 26° Northeast 441 507 37,000  Level Washington Center
Tue 09:58:22 AM 38.7803 -74.9844 23° Northeast 441 507 37,000 -50 Level Washington Center
Tue 09:59:22 AM 38.8906 -74.9194 25° Northeast 441 507 36,900 -50 Descending Washington Center
Tue 10:00:22 AM 39.0006 -74.8544 25° Northeast 441 507 36,900 -1,000 Level Washington Center
Tue 10:01:22 AM 39.1086 -74.7864 26° Northeast 436 502 34,900 -2,200 Descending Washington Center
Tue 10:02:22 AM 39.2078 -74.6861 38° Northeast 436 502 32,500 -2,316 Descending Washington Center
Tue 10:04:00 AM 39.3658 -74.5222 39° Northeast 454 522 28,800 -2,316 Descending New York Center
Tue 10:05:00 AM 39.4650 -74.4200 39° Northeast 454 522 26,400 -2,300 Descending New York Center
Tue 10:06:00 AM 39.5578 -74.3225 39° Northeast 447 514 24,200 -1,373 Descending New York Center
Tue 10:06:58 AM 39.6569 -74.2169 39° Northeast 424 488 23,700 -1,119 Descending New York Center
Tue 10:07:58 AM 39.7450 -74.1242 39° Northeast 413 475 22,000 -880 Descending New York Center
Tue 10:10:02 AM 39.9233 -73.9308 40° Northeast 418 481 21,000 -652 Descending Boston Center
Tue 10:11:02 AM 40.0119 -73.8378 39° Northeast 412 474 20,000 -869 Descending Boston Center
Tue 10:12:27 AM 40.1111 -73.7289 40° Northeast 401 461 18,900 -839 Descending Boston Center
Tue 10:13:25 AM 40.2164 -73.6222 38° Northeast 396 456 18,000 -966 Descending Boston Center
Tue 10:14:25 AM 40.2986 -73.5311 40° Northeast 396 456 17,000 -545 Descending Boston Center
Tue 10:15:26 AM 40.3828 -73.4561 34° Northeast 378 435 16,900 -45 Descending Boston Center
Tue 10:16:39 AM 40.4683 -73.4219 17° North 353 406 16,900 -361 Level Boston Center
Tue 10:17:39 AM 40.5875 -73.3828 14° North 353 406 16,100 -851 Descending Boston Center
Tue 10:18:53 AM 40.7167 -73.3333 16° North 363 418 15,000 -627 Descending New York TRACON
Tue 10:19:53 AM 40.8000 -73.2833 24° Northeast 336 387 14,700 -850 Descending New York TRACON
Tue 10:20:53 AM 40.8500 -73.1833 57° Northeast 338 389 13,300 -1,429 Descending New York TRACON
Tue 10:21:59 AM 40.9000 -73.0833 56° Northeast 332 382 11,700 -1,750 Descending New York TRACON
Tue 10:22:53 AM 40.9833 -73.0500 17° North 283 326 9,800 -1,895 Descending New York TRACON
Tue 10:23:53 AM 41.0500 -73.0833 339° North 293 337 8,100 -1,550 Descending New York TRACON
Tue 10:24:53 AM 41.0833 -73.1667 298° West 263 303 6,700 -1,500 Descending New York TRACON
Tue 10:25:53 AM 41.1000 -73.2667 283° West 256 295 5,100 -1,444 Descending New York TRACON
Tue 10:26:41 AM 41.1333 -73.3333 304° West 256 295 4,100 -750 Descending New York TRACON
Tue 10:27:53 AM 41.1667 -73.4333 294° West 255 293 3,600 -524 Descending New York TRACON
Tue 10:28:47 AM 41.1833 -73.5167 285° West 234 269 3,000 -333 Descending New York TRACON
Tue 10:29:41 AM 41.2000 -73.5667 294° West 197 227 3,000 -200 Level New York TRACON
Tue 10:30:47 AM 41.2000 -73.6500 270° West 186 214 2,600 -364 Descending New York TRACON

Login

Don't have an account? Register now (free) for customized features, flight alerts, and more!